Time;durP1;ratioP1;P1;durP2;ratioP2;P2;SDS_P1;SDS_P2;PMS_P1;PMS_P2;Temp;Humidity;BMP_temperature;BMP_pressure;BME280_temperature;BME280_humidity;BME280_pressure;Samples;Min_cycle;Max_cycle;Signal;HPM_P1;HPM_P2
2022/02/22 00:03:08;;;;;;;15.67;9.87;;;;;;;;;;10536441;28;20457;-63
2022/02/22 00:08:08;;;;;;;15.67;10.07;;;;;;;;;;10536859;28;20081;-62
2022/02/22 00:13:09;;;;;;;16.37;10.30;;;;;;;;;;10537822;28;20031;-64
2022/02/22 00:18:09;;;;;;;14.60;9.43;;;;;;;;;;10536982;28;20115;-62
2022/02/22 00:23:10;;;;;;;15.10;9.37;;;;;;;;;;10536785;28;20484;-64
2022/02/22 00:28:10;;;;;;;19.95;11.07;;;;;;;;;;10536688;28;20579;-62
2022/02/22 00:33:11;;;;;;;17.70;9.67;;;;;;;;;;10536579;28;20544;-62
2022/02/22 00:38:11;;;;;;;15.82;10.75;;;;;;;;;;10536267;28;20480;-61
2022/02/22 00:43:12;;;;;;;15.80;9.83;;;;;;;;;;10536030;28;20107;-61
2022/02/22 00:48:12;;;;;;;13.90;9.87;;;;;;;;;;10535856;28;20513;-62
2022/02/22 00:53:13;;;;;;;18.25;10.60;;;;;;;;;;10535670;28;20020;-65
2022/02/22 00:58:13;;;;;;;12.90;9.87;;;;;;;;;;10534624;28;20123;-62
2022/02/22 01:03:13;;;;;;;14.37;10.00;;;;;;;;;;10533575;28;20453;-61
2022/02/22 01:08:14;;;;;;;15.67;9.73;;;;;;;;;;10530297;28;20111;-62
2022/02/22 01:13:14;;;;;;;15.53;10.03;;;;;;;;;;10530936;28;20035;-62
2022/02/22 01:18:15;;;;;;;14.20;10.23;;;;;;;;;;10533003;28;20058;-64
2022/02/22 01:23:15;;;;;;;15.18;9.73;;;;;;;;;;10534397;28;20035;-65
2022/02/22 01:28:16;;;;;;;12.40;9.52;;;;;;;;;;10534679;28;20103;-65
2022/02/22 01:33:17;;;;;;;14.77;10.40;;;;;;;;;;10535545;28;20146;-63
2022/02/22 01:38:17;;;;;;;11.65;9.32;;;;;;;;;;10533082;28;20103;-63
2022/02/22 01:43:19;;;;;;;13.73;9.68;;;;;;;;;;10534079;28;20102;-67
2022/02/22 01:48:20;;;;;;;17.80;10.13;;;;;;;;;;10533963;28;20070;-68
2022/02/22 01:53:21;;;;;;;14.55;9.90;;;;;;;;;;10534496;28;20521;-67
2022/02/22 01:58:21;;;;;;;16.00;9.67;;;;;;;;;;10533299;28;20040;-64
2022/02/22 02:03:22;;;;;;;13.82;10.00;;;;;;;;;;10533517;28;20453;-63
2022/02/22 02:08:23;;;;;;;14.05;9.90;;;;;;;;;;10533416;28;20020;-64
2022/02/22 02:13:25;;;;;;;16.75;9.88;;;;;;;;;;10533907;28;20040;-64
2022/02/22 02:18:25;;;;;;;13.43;9.55;;;;;;;;;;10533330;28;20475;-63
2022/02/22 02:23:26;;;;;;;13.73;9.97;;;;;;;;;;10533610;28;20024;-66
2022/02/22 02:28:26;;;;;;;14.33;9.83;;;;;;;;;;10541568;28;20103;-65
2022/02/22 02:33:26;;;;;;;16.48;9.13;;;;;;;;;;10541430;28;20432;-67
2022/02/22 02:38:27;;;;;;;11.87;8.40;;;;;;;;;;10541274;28;20020;-67
2022/02/22 02:43:27;;;;;;;14.27;8.90;;;;;;;;;;10540929;28;20058;-66
2022/02/22 02:48:27;;;;;;;14.53;9.17;;;;;;;;;;10540536;28;20134;-64
2022/02/22 02:53:28;;;;;;;14.03;9.17;;;;;;;;;;10540753;28;20117;-63
2022/02/22 02:58:28;;;;;;;10.33;8.23;;;;;;;;;;10538911;28;20613;-66
2022/02/22 03:03:29;;;;;;;12.30;8.97;;;;;;;;;;10540123;28;20513;-65
2022/02/22 03:08:29;;;;;;;13.53;8.77;;;;;;;;;;10540060;28;20449;-63
2022/02/22 03:13:29;;;;;;;12.98;8.82;;;;;;;;;;10539824;28;20027;-63
2022/02/22 03:18:30;;;;;;;12.43;8.52;;;;;;;;;;10539621;28;20464;-67
2022/02/22 03:23:30;;;;;;;12.80;9.27;;;;;;;;;;10536255;28;20028;-66
2022/02/22 03:28:34;;;;;;;10.82;8.52;;;;;;;;;;10539784;28;20539;-63
2022/02/22 03:33:35;;;;;;;11.40;8.10;;;;;;;;;;10539223;28;20032;-66
2022/02/22 03:38:35;;;;;;;12.35;8.07;;;;;;;;;;10538200;28;20020;-65
2022/02/22 03:43:35;;;;;;;11.95;8.82;;;;;;;;;;10538601;28;20539;-66
2022/02/22 03:48:36;;;;;;;10.82;8.23;;;;;;;;;;10538424;28;20019;-65
2022/02/22 03:53:37;;;;;;;9.43;7.72;;;;;;;;;;10538320;28;20028;-66
2022/02/22 03:58:37;;;;;;;9.73;8.05;;;;;;;;;;10537779;28;20122;-67
2022/02/22 04:03:37;;;;;;;11.65;7.82;;;;;;;;;;10537888;28;20066;-66
2022/02/22 04:08:38;;;;;;;10.17;8.00;;;;;;;;;;10537730;28;20020;-64
2022/02/22 04:13:39;;;;;;;11.65;7.85;;;;;;;;;;10537829;28;20106;-66
2022/02/22 04:18:39;;;;;;;10.68;7.85;;;;;;;;;;10538399;28;20035;-65
2022/02/22 04:23:40;;;;;;;9.75;7.07;;;;;;;;;;10537052;28;20028;-63
2022/02/22 04:28:40;;;;;;;11.37;7.90;;;;;;;;;;10536797;28;20490;-65
2022/02/22 04:33:41;;;;;;;11.33;7.57;;;;;;;;;;10536772;28;20097;-65
2022/02/22 04:38:41;;;;;;;11.67;8.03;;;;;;;;;;10536383;28;20115;-63
2022/02/22 04:43:41;;;;;;;10.00;7.80;;;;;;;;;;10536266;28;20452;-63
2022/02/22 04:48:42;;;;;;;9.60;7.17;;;;;;;;;;10535051;28;20170;-65
2022/02/22 04:53:42;;;;;;;9.23;7.20;;;;;;;;;;10535902;28;20486;-63
2022/02/22 04:58:42;;;;;;;9.10;7.07;;;;;;;;;;10535431;28;20044;-65
2022/02/22 05:03:43;;;;;;;14.37;7.27;;;;;;;;;;10535475;28;20028;-63
2022/02/22 05:08:43;;;;;;;9.43;7.43;;;;;;;;;;10535293;28;20809;-64
2022/02/22 05:13:44;;;;;;;10.27;7.05;;;;;;;;;;10535068;28;20464;-65
2022/02/22 05:18:44;;;;;;;8.90;6.70;;;;;;;;;;10534811;28;20024;-66
2022/02/22 05:23:44;;;;;;;11.67;7.07;;;;;;;;;;10530699;28;20115;-63
2022/02/22 05:28:46;;;;;;;9.53;7.17;;;;;;;;;;10532775;28;20968;-67
2022/02/22 05:33:46;;;;;;;10.60;6.78;;;;;;;;;;10533403;28;20183;-66
2022/02/22 05:38:47;;;;;;;10.23;6.70;;;;;;;;;;10534311;28;20111;-66
2022/02/22 05:43:49;;;;;;;8.63;6.38;;;;;;;;;;10534083;28;20490;-63
2022/02/22 05:48:49;;;;;;;7.97;6.22;;;;;;;;;;10534018;28;20024;-65
2022/02/22 05:53:51;;;;;;;8.98;6.68;;;;;;;;;;10533928;28;20463;-65
2022/02/22 05:58:51;;;;;;;7.85;6.20;;;;;;;;;;10533092;28;20547;-63
2022/02/22 06:03:52;;;;;;;8.10;6.60;;;;;;;;;;10532403;28;20114;-66
2022/02/22 06:08:52;;;;;;;10.63;6.07;;;;;;;;;;10533412;28;21012;-62
2022/02/22 06:13:52;;;;;;;8.53;6.40;;;;;;;;;;10533412;28;20605;-66
2022/02/22 06:18:53;;;;;;;8.83;5.93;;;;;;;;;;10532958;28;20490;-66
2022/02/22 06:23:53;;;;;;;9.15;6.45;;;;;;;;;;10533127;28;20411;-68
2022/02/22 06:28:54;;;;;;;8.20;6.60;;;;;;;;;;10532999;28;20030;-64
2022/02/22 06:33:54;;;;;;;8.32;6.05;;;;;;;;;;10529018;28;20432;-64
2022/02/22 06:38:55;;;;;;;9.33;5.83;;;;;;;;;;10532697;28;20107;-65
2022/02/22 06:43:56;;;;;;;7.63;5.28;;;;;;;;;;10533073;28;20040;-64
2022/02/22 06:48:56;;;;;;;7.70;4.90;;;;;;;;;;10532497;28;20028;-64
2022/02/22 06:53:57;;;;;;;6.85;4.85;;;;;;;;;;10533315;28;20429;-65
2022/02/22 06:58:57;;;;;;;12.70;5.00;;;;;;;;;;10533849;28;20457;-62
2022/02/22 07:03:58;;;;;;;7.60;4.80;;;;;;;;;;10532650;28;20476;-65
2022/02/22 07:08:58;;;;;;;10.30;4.93;;;;;;;;;;10531952;28;20436;-65
2022/02/22 07:13:58;;;;;;;13.13;5.33;;;;;;;;;;10536640;28;20111;-65
2022/02/22 07:18:59;;;;;;;11.88;4.88;;;;;;;;;;10539466;28;21003;-62
2022/02/22 07:23:59;;;;;;;18.58;4.97;;;;;;;;;;10539486;28;20059;-63
2022/02/22 07:29:00;;;;;;;8.20;5.30;;;;;;;;;;10538936;28;20031;-65
2022/02/22 07:34:00;;;;;;;14.93;5.77;;;;;;;;;;10538665;28;20484;-63
2022/02/22 07:39:00;;;;;;;14.27;5.83;;;;;;;;;;10538384;28;20433;-66
2022/02/22 07:44:01;;;;;;;19.75;6.03;;;;;;;;;;10538470;28;20317;-67
2022/02/22 07:49:02;;;;;;;11.27;5.88;;;;;;;;;;10538228;28;20475;-67
2022/02/22 07:54:03;;;;;;;11.40;5.25;;;;;;;;;;10538782;28;20024;-66
2022/02/22 07:59:04;;;;;;;15.77;5.53;;;;;;;;;;10535100;28;20044;-63
2022/02/22 08:04:05;;;;;;;14.32;5.07;;;;;;;;;;10537085;28;20050;-69
2022/02/22 08:09:05;;;;;;;8.65;4.82;;;;;;;;;;10536361;28;20032;-66
2022/02/22 08:14:06;;;;;;;9.10;5.37;;;;;;;;;;10537319;28;20054;-69
2022/02/22 08:19:07;;;;;;;11.77;4.82;;;;;;;;;;10536023;28;20545;-66
2022/02/22 08:24:08;;;;;;;13.20;5.13;;;;;;;;;;10533110;28;20031;-68
2022/02/22 08:29:08;;;;;;;10.90;4.93;;;;;;;;;;10535390;28;20024;-66
2022/02/22 08:34:08;;;;;;;8.30;4.80;;;;;;;;;;10536381;28;20036;-63
2022/02/22 08:39:09;;;;;;;7.50;4.70;;;;;;;;;;10531036;28;20540;-67
2022/02/22 08:44:10;;;;;;;13.63;5.50;;;;;;;;;;10536147;28;20471;-67
2022/02/22 08:49:11;;;;;;;8.57;4.80;;;;;;;;;;10536024;28;20103;-64
2022/02/22 08:54:11;;;;;;;5.80;4.63;;;;;;;;;;10535788;28;20099;-62
2022/02/22 08:59:12;;;;;;;5.40;4.20;;;;;;;;;;10533481;28;20055;-60
2022/02/22 09:04:12;;;;;;;12.50;4.30;;;;;;;;;;10535162;28;20455;-60
2022/02/22 09:09:12;;;;;;;10.40;4.87;;;;;;;;;;10534821;28;21026;-66
2022/02/22 09:14:13;;;;;;;9.73;4.83;;;;;;;;;;10534838;28;20703;-61
2022/02/22 09:19:13;;;;;;;8.40;4.83;;;;;;;;;;10534388;28;20532;-64
2022/02/22 09:24:13;;;;;;;6.97;4.50;;;;;;;;;;10534500;28;20032;-63
2022/02/22 09:29:14;;;;;;;9.07;4.40;;;;;;;;;;10534204;28;20119;-65
2022/02/22 09:34:15;;;;;;;6.23;4.03;;;;;;;;;;10534460;28;20024;-61
2022/02/22 09:39:16;;;;;;;7.95;4.03;;;;;;;;;;10534008;28;20788;-67
2022/02/22 09:44:16;;;;;;;8.37;4.23;;;;;;;;;;10533745;28;20031;-65
2022/02/22 09:49:17;;;;;;;6.43;3.83;;;;;;;;;;10531167;28;20477;-61
2022/02/22 09:54:17;;;;;;;6.82;4.18;;;;;;;;;;10531823;28;20032;-66
2022/02/22 09:59:21;;;;;;;5.47;3.43;;;;;;;;;;10533377;28;20040;-61
2022/02/22 10:04:22;;;;;;;5.28;4.03;;;;;;;;;;10534158;28;20467;-66
2022/02/22 10:09:22;;;;;;;5.97;3.22;;;;;;;;;;10533734;28;20040;-67
2022/02/22 10:14:28;;;;;;;5.53;3.40;;;;;;;;;;10533344;28;20426;-62
2022/02/22 10:19:29;;;;;;;4.47;3.13;;;;;;;;;;10532226;28;20940;-64
2022/02/22 10:24:30;;;;;;;6.03;3.13;;;;;;;;;;10533177;28;20032;-62
2022/02/22 10:29:32;;;;;;;4.32;3.33;;;;;;;;;;10531666;28;20462;-62
2022/02/22 10:34:33;;;;;;;5.88;3.17;;;;;;;;;;10532961;28;20377;-61
2022/02/22 10:39:34;;;;;;;5.97;3.08;;;;;;;;;;10531825;28;20336;-63
2022/02/22 10:44:39;;;;;;;4.80;2.90;;;;;;;;;;10532372;28;20067;-61
2022/02/22 10:49:40;;;;;;;4.43;2.92;;;;;;;;;;10539375;28;20360;-61
2022/02/22 10:54:43;;;;;;;3.43;2.70;;;;;;;;;;10540392;28;20020;-61
2022/02/22 10:59:44;;;;;;;4.63;2.70;;;;;;;;;;10540091;28;21005;-61
2022/02/22 11:04:45;;;;;;;4.82;2.40;;;;;;;;;;10540630;28;20031;-61
2022/02/22 11:09:46;;;;;;;3.28;2.80;;;;;;;;;;10539561;28;20028;-61
2022/02/22 11:14:46;;;;;;;3.15;2.55;;;;;;;;;;10537764;28;20490;-67
2022/02/22 11:19:47;;;;;;;3.77;2.93;;;;;;;;;;10535874;28;20103;-65
2022/02/22 11:24:59;;;;;;;3.28;2.47;;;;;;;;;;10537858;28;20996;-63
2022/02/22 11:30:08;;;;;;;3.33;2.67;;;;;;;;;;10539071;28;20513;-63
2022/02/22 11:35:13;;;;;;;3.40;2.70;;;;;;;;;;10539584;28;20031;-68
2022/02/22 11:40:23;;;;;;;4.70;2.95;;;;;;;;;;10538770;28;20107;-67
2022/02/22 11:45:27;;;;;;;4.22;2.42;;;;;;;;;;10538571;28;20057;-67
2022/02/22 11:50:27;;;;;;;3.85;2.78;;;;;;;;;;10538180;28;20024;-67
2022/02/22 11:55:37;;;;;;;5.53;2.40;;;;;;;;;;10536551;28;20035;-68
2022/02/22 12:00:38;;;;;;;2.33;2.08;;;;;;;;;;10537365;28;20040;-68
2022/02/22 12:05:51;;;;;;;4.05;2.25;;;;;;;;;;10538398;28;20028;-68
2022/02/22 12:10:57;;;;;;;3.35;2.45;;;;;;;;;;10537639;28;20039;-69
2022/02/22 12:15:58;;;;;;;2.95;2.22;;;;;;;;;;10537637;28;20030;-64
2022/02/22 12:20:58;;;;;;;4.40;2.43;;;;;;;;;;10536987;28;20140;-64
2022/02/22 12:26:05;;;;;;;4.13;2.50;;;;;;;;;;10536628;28;20041;-61
2022/02/22 12:31:05;;;;;;;4.35;2.33;;;;;;;;;;10536447;28;20031;-62
2022/02/22 12:36:16;;;;;;;3.37;2.47;;;;;;;;;;10536241;28;20040;-61
2022/02/22 12:41:17;;;;;;;3.75;2.38;;;;;;;;;;10535208;28;20110;-68
2022/02/22 12:46:20;;;;;;;5.03;2.22;;;;;;;;;;10531067;28;20103;-69
2022/02/22 12:51:25;;;;;;;3.63;2.47;;;;;;;;;;10535804;28;20035;-69
2022/02/22 12:56:46;;;;;;;3.47;2.30;;;;;;;;;;10552823;22;20046;-61
2022/02/22 13:01:46;;;;;;;3.97;2.30;;;;;;;;;;10521852;28;20472;-64
2022/02/22 13:07:10;;;;;;;3.03;2.30;;;;;;;;;;10537381;28;20111;-61
2022/02/22 13:12:11;;;;;;;2.42;2.00;;;;;;;;;;10531109;28;20074;-65
2022/02/22 13:17:13;;;;;;;5.00;2.25;;;;;;;;;;10532802;28;20034;-66
2022/02/22 13:22:29;;;;;;;5.88;2.10;;;;;;;;;;10531977;28;20110;-61
2022/02/22 13:27:32;;;;;;;4.45;2.15;;;;;;;;;;10532596;28;20441;-65
2022/02/22 13:32:34;;;;;;;4.63;2.20;;;;;;;;;;10533106;28;20042;-65
2022/02/22 13:37:39;;;;;;;4.63;2.25;;;;;;;;;;10531716;28;20043;-65
2022/02/22 13:42:40;;;;;;;5.72;2.33;;;;;;;;;;10532652;28;20046;-66
2022/02/22 13:47:45;;;;;;;2.72;1.95;;;;;;;;;;10531979;28;20107;-66
2022/02/22 13:52:57;;;;;;;3.25;2.22;;;;;;;;;;10533889;28;20460;-66
2022/02/22 13:58:02;;;;;;;4.68;2.30;;;;;;;;;;10532041;28;20075;-66
2022/02/22 14:03:04;;;;;;;2.97;1.90;;;;;;;;;;10532408;28;20122;-66
2022/02/22 14:08:06;;;;;;;3.30;1.88;;;;;;;;;;10533139;28;20512;-66
2022/02/22 14:13:07;;;;;;;2.58;1.90;;;;;;;;;;10533586;28;20024;-66
2022/02/22 14:18:08;;;;;;;4.88;1.92;;;;;;;;;;10532506;28;20030;-65
2022/02/22 14:23:09;;;;;;;2.70;2.03;;;;;;;;;;10540003;28;20576;-66
2022/02/22 14:28:09;;;;;;;5.93;1.92;;;;;;;;;;10542208;28;20045;-64
2022/02/22 14:33:10;;;;;;;2.70;1.60;;;;;;;;;;10542116;28;20051;-66
2022/02/22 14:38:10;;;;;;;4.00;1.83;;;;;;;;;;10537257;28;20024;-65
2022/02/22 14:43:10;;;;;;;5.17;2.10;;;;;;;;;;10538860;28;20858;-65
2022/02/22 14:48:11;;;;;;;2.10;1.83;;;;;;;;;;10539576;28;20471;-65
2022/02/22 14:53:11;;;;;;;7.18;2.63;;;;;;;;;;10540410;28;20035;-65
2022/02/22 14:58:11;;;;;;;3.80;1.90;;;;;;;;;;10539718;28;20036;-65
2022/02/22 15:03:12;;;;;;;2.73;1.83;;;;;;;;;;10539587;28;20460;-65
2022/02/22 15:08:13;;;;;;;2.83;2.05;;;;;;;;;;10540279;28;20197;-61
2022/02/22 15:13:14;;;;;;;4.55;2.45;;;;;;;;;;10539436;28;20055;-61
2022/02/22 15:18:14;;;;;;;3.25;2.40;;;;;;;;;;10539267;28;20024;-65
2022/02/22 15:23:16;;;;;;;2.90;2.30;;;;;;;;;;10539133;28;20036;-65
2022/02/22 15:28:18;;;;;;;2.72;2.38;;;;;;;;;;10539064;28;20120;-62
2022/02/22 15:33:19;;;;;;;4.47;2.58;;;;;;;;;;10538462;28;20020;-65
2022/02/22 15:38:20;;;;;;;4.32;2.30;;;;;;;;;;10538797;28;20020;-65
2022/02/22 15:43:21;;;;;;;4.05;2.60;;;;;;;;;;10539163;28;20028;-66
2022/02/22 15:48:22;;;;;;;3.55;2.35;;;;;;;;;;10538538;28;20400;-65
2022/02/22 15:53:23;;;;;;;5.78;2.72;;;;;;;;;;10535865;28;20357;-65
2022/02/22 15:58:24;;;;;;;5.78;2.90;;;;;;;;;;10537413;28;20056;-62
2022/02/22 16:03:24;;;;;;;3.20;2.90;;;;;;;;;;10537648;28;20468;-62
2022/02/22 16:08:24;;;;;;;4.33;2.90;;;;;;;;;;10537528;28;20445;-64
2022/02/22 16:13:25;;;;;;;7.78;2.65;;;;;;;;;;10536279;28;20099;-63
2022/02/22 16:18:25;;;;;;;4.77;2.40;;;;;;;;;;10536918;28;20415;-65
2022/02/22 16:23:26;;;;;;;3.05;2.60;;;;;;;;;;10536947;28;20453;-64
2022/02/22 16:28:27;;;;;;;3.80;2.40;;;;;;;;;;10536797;28;20028;-64
2022/02/22 16:33:29;;;;;;;4.30;2.42;;;;;;;;;;10536776;28;20024;-64
2022/02/22 16:38:30;;;;;;;3.92;2.13;;;;;;;;;;10536524;28;20515;-61
2022/02/22 16:43:32;;;;;;;3.08;2.38;;;;;;;;;;10536413;28;20261;-62
2022/02/22 16:48:33;;;;;;;4.95;2.70;;;;;;;;;;10536220;28;20494;-64
2022/02/22 16:53:34;;;;;;;4.65;2.63;;;;;;;;;;10536058;28;20020;-62
2022/02/22 16:58:34;;;;;;;5.07;2.03;;;;;;;;;;10535706;28;20042;-63
2022/02/22 17:03:36;;;;;;;3.17;2.38;;;;;;;;;;10535979;28;20586;-64
2022/02/22 17:08:37;;;;;;;5.10;3.17;;;;;;;;;;10535797;28;20099;-64
2022/02/22 17:13:38;;;;;;;4.95;2.40;;;;;;;;;;10535004;28;20489;-63
2022/02/22 17:18:39;;;;;;;5.53;2.87;;;;;;;;;;10534974;28;20103;-63
2022/02/22 17:23:39;;;;;;;5.63;2.50;;;;;;;;;;10535196;28;20476;-63
2022/02/22 17:28:40;;;;;;;5.57;2.65;;;;;;;;;;10534540;28;20477;-64
2022/02/22 17:33:41;;;;;;;5.22;2.70;;;;;;;;;;10535093;28;20020;-64
2022/02/22 17:38:41;;;;;;;4.20;2.92;;;;;;;;;;10532137;28;20024;-63
2022/02/22 17:43:42;;;;;;;5.30;2.70;;;;;;;;;;10533921;28;20031;-63
2022/02/22 17:48:42;;;;;;;6.07;2.83;;;;;;;;;;10533818;28;20586;-64
2022/02/22 17:53:43;;;;;;;5.40;2.73;;;;;;;;;;10533426;28;20020;-63
2022/02/22 17:58:43;;;;;;;9.07;2.90;;;;;;;;;;10532822;28;20464;-63
2022/02/22 18:03:44;;;;;;;9.57;3.25;;;;;;;;;;10532701;28;20582;-64
2022/02/22 18:08:44;;;;;;;10.18;3.28;;;;;;;;;;10532838;28;20042;-64
2022/02/22 18:13:45;;;;;;;3.37;2.67;;;;;;;;;;10530371;28;20024;-64
2022/02/22 18:18:46;;;;;;;7.95;2.97;;;;;;;;;;10531077;28;20032;-64
2022/02/22 18:23:46;;;;;;;5.07;2.90;;;;;;;;;;10531288;28;20028;-64
2022/02/22 18:28:47;;;;;;;4.30;2.95;;;;;;;;;;10532312;28;20448;-65
2022/02/22 18:33:48;;;;;;;3.90;2.63;;;;;;;;;;10531839;28;20059;-65
2022/02/22 18:38:49;;;;;;;9.38;2.83;;;;;;;;;;10532316;28;20037;-64
2022/02/22 18:43:49;;;;;;;4.55;2.53;;;;;;;;;;10532400;28;20395;-64
2022/02/22 18:48:50;;;;;;;4.18;2.90;;;;;;;;;;10532002;28;20028;-65
2022/02/22 18:53:50;;;;;;;6.73;2.63;;;;;;;;;;10531701;28;20107;-65
2022/02/22 18:58:52;;;;;;;4.07;2.75;;;;;;;;;;10532117;28;20801;-63
2022/02/22 19:03:52;;;;;;;5.30;2.78;;;;;;;;;;10531855;28;20357;-63
2022/02/22 19:08:53;;;;;;;5.70;2.80;;;;;;;;;;10536620;28;20036;-64
2022/02/22 19:13:53;;;;;;;4.07;2.58;;;;;;;;;;10537462;28;20106;-64
2022/02/22 19:18:54;;;;;;;8.37;2.83;;;;;;;;;;10539462;28;20060;-64
2022/02/22 19:23:56;;;;;;;7.22;3.15;;;;;;;;;;10539804;28;20036;-63
2022/02/22 19:28:56;;;;;;;4.57;2.58;;;;;;;;;;10537762;28;20375;-67
2022/02/22 19:33:57;;;;;;;14.77;3.90;;;;;;;;;;10536802;28;20028;-66
2022/02/22 19:38:57;;;;;;;22.13;4.50;;;;;;;;;;10532249;28;20449;-65
2022/02/22 19:43:58;;;;;;;10.25;3.75;;;;;;;;;;10538152;28;20612;-65
2022/02/22 19:48:59;;;;;;;16.65;3.25;;;;;;;;;;10539062;28;20028;-66
2022/02/22 19:53:59;;;;;;;17.10;3.85;;;;;;;;;;10538282;28;20016;-65
2022/02/22 19:59:00;;;;;;;9.77;3.17;;;;;;;;;;10537548;28;20040;-65
2022/02/22 20:04:00;;;;;;;9.80;3.50;;;;;;;;;;10537530;28;20032;-65
2022/02/22 20:09:01;;;;;;;13.17;3.87;;;;;;;;;;10537522;28;20030;-65
2022/02/22 20:14:04;;;;;;;7.53;3.33;;;;;;;;;;10537397;28;20644;-66
2022/02/22 20:19:05;;;;;;;8.40;3.00;;;;;;;;;;10536876;28;20111;-65
2022/02/22 20:24:05;;;;;;;8.65;3.13;;;;;;;;;;10536995;28;20487;-65
2022/02/22 20:29:06;;;;;;;7.35;3.85;;;;;;;;;;10536521;28;20035;-65
2022/02/22 20:34:07;;;;;;;7.35;3.25;;;;;;;;;;10536112;28;20146;-63
2022/02/22 20:39:08;;;;;;;8.13;3.35;;;;;;;;;;10536893;28;20035;-65
2022/02/22 20:44:09;;;;;;;12.82;4.20;;;;;;;;;;10536673;28;20028;-65
2022/02/22 20:49:09;;;;;;;9.45;3.28;;;;;;;;;;10535682;28;20589;-65
2022/02/22 20:54:09;;;;;;;8.93;3.20;;;;;;;;;;10536647;28;20020;-64
2022/02/22 20:59:10;;;;;;;14.30;3.67;;;;;;;;;;10535681;28;20040;-65
2022/02/22 21:04:10;;;;;;;9.20;3.30;;;;;;;;;;10535291;28;20459;-65
2022/02/22 21:09:11;;;;;;;7.93;2.70;;;;;;;;;;10534304;28;20059;-64
2022/02/22 21:14:11;;;;;;;5.93;3.28;;;;;;;;;;10535118;28;20028;-65
2022/02/22 21:19:11;;;;;;;6.70;3.03;;;;;;;;;;10534771;28;20024;-65
2022/02/22 21:24:12;;;;;;;5.33;3.10;;;;;;;;;;10534735;28;20110;-64
2022/02/22 21:29:13;;;;;;;10.10;3.30;;;;;;;;;;10533040;28;20445;-64
2022/02/22 21:34:13;;;;;;;7.20;3.38;;;;;;;;;;10533560;28;20099;-65
2022/02/22 21:39:14;;;;;;;12.80;3.43;;;;;;;;;;10532961;28;20075;-65
2022/02/22 21:44:14;;;;;;;16.55;3.30;;;;;;;;;;10529497;28;20032;-65
2022/02/22 21:49:16;;;;;;;6.85;2.88;;;;;;;;;;10532604;28;20097;-65
2022/02/22 21:54:16;;;;;;;7.78;3.47;;;;;;;;;;10532961;28;20020;-65
2022/02/22 21:59:16;;;;;;;6.00;3.03;;;;;;;;;;10533619;28;20047;-65
2022/02/22 22:04:17;;;;;;;7.03;2.80;;;;;;;;;;10533592;28;20497;-66
2022/02/22 22:09:17;;;;;;;6.97;3.37;;;;;;;;;;10533075;28;20032;-65
2022/02/22 22:14:18;;;;;;;4.50;2.93;;;;;;;;;;10531530;28;20072;-65
2022/02/22 22:19:18;;;;;;;6.63;3.28;;;;;;;;;;10532004;28;20437;-65
2022/02/22 22:24:19;;;;;;;4.83;3.23;;;;;;;;;;10531790;28;20028;-65
2022/02/22 22:29:19;;;;;;;4.57;2.70;;;;;;;;;;10532278;28;20565;-65
2022/02/22 22:34:19;;;;;;;8.83;3.70;;;;;;;;;;10531451;28;20020;-65
2022/02/22 22:39:20;;;;;;;9.73;3.20;;;;;;;;;;10532132;28;20445;-65
2022/02/22 22:44:20;;;;;;;4.80;2.90;;;;;;;;;;10539261;28;20457;-65
2022/02/22 22:49:20;;;;;;;4.97;3.30;;;;;;;;;;10539688;28;20038;-65
2022/02/22 22:54:21;;;;;;;9.50;3.83;;;;;;;;;;10540738;28;20436;-64
2022/02/22 22:59:22;;;;;;;7.73;3.80;;;;;;;;;;10540350;28;20517;-64
2022/02/22 23:04:22;;;;;;;14.38;4.45;;;;;;;;;;10539976;28;20971;-64
2022/02/22 23:14:43;;;;;;;10.80;4.43;;;;;;;;;;10539454;28;20028;-66
2022/02/22 23:19:44;;;;;;;10.75;4.65;;;;;;;;;;10538118;28;20023;-65
2022/02/22 23:24:45;;;;;;;21.33;5.57;;;;;;;;;;10537073;28;20030;-65
2022/02/22 23:29:46;;;;;;;16.67;5.18;;;;;;;;;;10537408;28;20107;-65
2022/02/22 23:34:46;;;;;;;17.58;5.68;;;;;;;;;;10536917;28;20065;-66
2022/02/22 23:39:47;;;;;;;16.80;5.30;;;;;;;;;;10538045;28;20081;-65
2022/02/22 23:44:47;;;;;;;10.88;5.40;;;;;;;;;;10537957;28;20043;-65
2022/02/22 23:49:48;;;;;;;16.20;5.13;;;;;;;;;;10537252;28;20084;-65
2022/02/22 23:54:48;;;;;;;16.50;6.23;;;;;;;;;;10531595;28;20023;-65
2022/02/22 23:59:48;;;;;;;9.90;5.38;;;;;;;;;;10536961;28;20477;-65
